Ocoee 2 Observed Data For Previous 48 Hours

Note: Discharge information is a combination of river flows at the Ocoee No. 2 dam and the volume of water diverted by the Ocoee Flume, which bypasses the middle section of the river where recreational rafting is held.

Caption
Day and Hour Reservoir Elevation (behind dam)* Tailwater Elevation (below dam)* Average Hourly Discharge*
3/18/2019 2 AM EDT 844.63 4,810
3/18/2019 3 AM EDT 844.52 4,573
3/18/2019 4 AM EDT 844.44 4,452
3/18/2019 5 AM EDT 844.44 4,450
3/18/2019 6 AM EDT 844.47 4,488
3/18/2019 7 AM EDT 844.45 4,448
3/18/2019 8 AM EDT 844.43 4,437
3/18/2019 9 AM EDT 844.45 4,415
3/18/2019 10 AM EDT 844.44 4,425
3/18/2019 11 AM EDT 844.17 3,848
3/18/2019 12 PM EDT 844.27 4,139
3/18/2019 1 PM EDT 844.09 3,735
3/18/2019 2 PM EDT 844.25 4,025
3/18/2019 3 PM EDT 844.24 4,030
3/18/2019 4 PM EDT 844.26 4,095
3/18/2019 5 PM EDT 844.24 4,008
3/18/2019 6 PM EDT 844.23 4,034
3/18/2019 7 PM EDT 844.23 4,020
3/18/2019 8 PM EDT 844.26 4,037
3/18/2019 9 PM EDT 844.26 4,040
3/18/2019 10 PM EDT 844.26 4,080
3/18/2019 11 PM EDT 844.25 4,058
3/19/2019 12 AM EDT 844.21 3,986
3/19/2019 1 AM EDT 844.26 4,055
3/19/2019 2 AM EDT 844.27 4,062
3/19/2019 3 AM EDT 844.28 4,072
3/19/2019 4 AM EDT 844.24 4,023
3/19/2019 5 AM EDT 844.26 4,051
3/19/2019 6 AM EDT 844.24 4,027
3/19/2019 7 AM EDT 844.23 4,007
3/19/2019 8 AM EDT 844.28 4,073
3/19/2019 9 AM EDT 844.22 4,042
3/19/2019 10 AM EDT 844.28 4,028
3/19/2019 11 AM EDT 844.22 4,018
3/19/2019 12 PM EDT 844.23 4,015
3/19/2019 1 PM EDT 844.25 4,067
3/19/2019 2 PM EDT 844.23 3,977
3/19/2019 3 PM EDT 844.16 3,904
3/19/2019 4 PM EDT 843.72 3,091
3/19/2019 5 PM EDT 843.77 3,201
3/19/2019 6 PM EDT 843.82 3,243
3/19/2019 7 PM EDT 843.79 3,238
3/19/2019 8 PM EDT 843.78 3,243
3/19/2019 9 PM EDT 843.77 3,227
3/19/2019 10 PM EDT 843.79 3,190
3/19/2019 11 PM EDT 843.82 3,251
3/20/2019 12 AM EDT 843.84 3,301
3/20/2019 1 AM EDT 844.84 5,338
3/20/2019 2 AM EDT 844.85 5,271
3/20/2019 3 AM EDT 844.87 5,335
3/20/2019 4 AM EDT 844.87 5,307
3/20/2019 5 AM EDT 844.81 5,176
3/20/2019 6 AM EDT 844.42 4,398
3/20/2019 7 AM EDT 844.39 4,398
3/20/2019 8 AM EDT 844.42 4,351

Elevations are in feet above sea level. Discharges are in cubic feet per second and are reported at the end of the hour.